createdAt,value
2023-02-07T00:01:16.676Z,32.30
2023-02-07T00:03:48.709Z,30.10
2023-02-07T00:06:25.342Z,32.30
2023-02-07T00:08:59.189Z,33.30
2023-02-07T00:11:31.448Z,35.60
2023-02-07T00:14:03.639Z,32.90
2023-02-07T00:16:35.581Z,30.50
2023-02-07T00:19:08.299Z,34.40
2023-02-07T00:21:40.237Z,31.10
2023-02-07T00:24:12.315Z,36.90
2023-02-07T00:26:47.087Z,33.70
2023-02-07T00:29:20.093Z,32.00
2023-02-07T00:34:25.417Z,29.80
2023-02-07T00:36:57.773Z,30.40
2023-02-07T00:39:29.837Z,29.20
2023-02-07T00:42:02.356Z,29.70
2023-02-07T00:44:34.362Z,28.10
2023-02-07T00:49:41.806Z,31.80
2023-02-07T00:52:13.746Z,28.80
2023-02-07T00:54:45.728Z,28.30
2023-02-07T00:57:17.634Z,30.70
2023-02-07T00:59:49.545Z,27.80
2023-02-07T01:02:22.282Z,31.60
2023-02-07T01:04:54.974Z,29.70
2023-02-07T01:07:26.919Z,29.00
2023-02-07T01:09:58.853Z,32.10
2023-02-07T01:12:30.883Z,26.60
2023-02-07T01:15:04.116Z,28.00
2023-02-07T01:17:36.055Z,28.40
2023-02-07T01:20:08.860Z,24.80
2023-02-07T01:22:41.381Z,26.60
2023-02-07T01:25:13.313Z,28.10
2023-02-07T01:27:45.255Z,26.00
2023-02-07T01:30:17.849Z,26.30
2023-02-07T01:32:50.282Z,27.50
2023-02-07T01:35:22.343Z,27.20
2023-02-07T01:37:54.323Z,26.70
2023-02-07T01:40:27.532Z,24.70
2023-02-07T01:42:59.443Z,25.90
2023-02-07T01:45:37.314Z,26.10
2023-02-07T01:48:15.471Z,25.70
2023-02-07T01:50:51.754Z,24.50
2023-02-07T01:53:25.907Z,23.90
2023-02-07T01:56:01.399Z,24.60
2023-02-07T01:58:34.589Z,25.70
2023-02-07T02:01:11.285Z,21.90
2023-02-07T02:03:46.877Z,24.90
2023-02-07T02:06:19.321Z,23.20
2023-02-07T02:08:54.993Z,24.10
2023-02-07T02:11:34.698Z,24.20
2023-02-07T02:14:25.393Z,22.50
2023-02-07T02:17:20.721Z,22.20
2023-02-07T02:20:29.948Z,23.20
2023-02-07T02:23:07.629Z,23.60
2023-02-07T02:26:05.981Z,21.30
2023-02-07T02:28:44.138Z,20.10
2023-02-07T02:31:45.547Z,22.70
2023-02-07T02:34:24.520Z,20.90
2023-02-07T02:37:21.139Z,23.10
2023-02-07T02:40:11.658Z,22.70
2023-02-07T02:42:50.649Z,23.60
2023-02-07T02:45:30.753Z,20.20
2023-02-07T02:48:04.039Z,22.50
2023-02-07T02:50:35.935Z,21.00
2023-02-07T02:53:09.849Z,20.80
2023-02-07T02:56:05.695Z,20.40
2023-02-07T02:58:43.854Z,20.60
2023-02-07T03:01:50.014Z,23.00
2023-02-07T03:04:28.725Z,20.40
2023-02-07T03:07:34.343Z,20.50
2023-02-07T03:10:09.341Z,20.20
2023-02-07T03:12:44.336Z,22.50
2023-02-07T03:15:34.366Z,20.70
2023-02-07T03:18:22.275Z,21.50
2023-02-07T03:21:00.511Z,19.80
2023-02-07T03:23:34.255Z,22.80
2023-02-07T03:26:06.866Z,19.80
2023-02-07T03:28:39.605Z,19.90
2023-02-07T03:31:14.418Z,19.00
2023-02-07T03:33:49.712Z,21.00
2023-02-07T03:36:29.705Z,21.90
2023-02-07T03:39:01.630Z,19.30
2023-02-07T03:41:43.193Z,19.30
2023-02-07T03:44:15.721Z,20.90
2023-02-07T03:46:50.103Z,17.70
2023-02-07T03:49:22.811Z,19.20
2023-02-07T03:51:54.770Z,19.90
2023-02-07T03:54:26.719Z,18.60
2023-02-07T03:56:58.675Z,19.40
2023-02-07T03:59:30.559Z,17.60
2023-02-07T04:02:02.652Z,19.30
2023-02-07T04:04:34.920Z,19.50
2023-02-07T04:07:07.045Z,19.20
2023-02-07T04:09:39.055Z,21.40
2023-02-07T04:12:10.945Z,20.40
2023-02-07T04:14:42.864Z,19.60
2023-02-07T04:17:14.808Z,20.90
2023-02-07T04:19:46.701Z,18.20
2023-02-07T04:22:19.988Z,19.30
2023-02-07T04:24:52.012Z,18.20
2023-02-07T04:27:24.227Z,20.80
2023-02-07T04:29:56.592Z,15.00
2023-02-07T04:32:28.604Z,21.90
2023-02-07T04:35:00.531Z,17.90
2023-02-07T04:37:32.885Z,20.40
2023-02-07T04:40:05.092Z,21.60
2023-02-07T04:42:37.017Z,17.40
2023-02-07T04:45:09.344Z,16.80
2023-02-07T04:47:41.413Z,17.90
2023-02-07T04:50:13.340Z,19.00
2023-02-07T04:52:45.258Z,17.20
2023-02-07T04:55:17.245Z,17.90
2023-02-07T04:57:49.645Z,17.80
2023-02-07T05:00:21.622Z,21.10
2023-02-07T05:02:53.524Z,17.80
2023-02-07T05:05:25.909Z,16.20
2023-02-07T05:07:57.958Z,17.60
2023-02-07T05:10:29.836Z,17.90
2023-02-07T05:13:02.312Z,17.00
2023-02-07T05:15:34.335Z,18.50
2023-02-07T05:18:06.337Z,15.90
2023-02-07T05:20:38.287Z,14.80
2023-02-07T05:23:10.242Z,17.60
2023-02-07T05:25:43.151Z,14.70
2023-02-07T05:28:15.474Z,17.90
2023-02-07T05:30:47.527Z,16.40
2023-02-07T05:33:19.557Z,15.60
2023-02-07T05:35:51.447Z,17.10
2023-02-07T05:38:23.380Z,15.50
2023-02-07T05:40:55.692Z,15.70
2023-02-07T05:43:27.688Z,14.50
2023-02-07T05:45:59.616Z,15.10
2023-02-07T05:48:31.508Z,16.90
2023-02-07T05:51:03.557Z,15.90
2023-02-07T05:53:35.471Z,14.60
2023-02-07T05:56:07.421Z,14.70
2023-02-07T05:58:39.308Z,14.60
2023-02-07T06:01:11.240Z,14.50
2023-02-07T06:03:43.137Z,15.80
2023-02-07T06:06:15.259Z,13.70
2023-02-07T06:08:47.142Z,15.20
2023-02-07T06:11:19.107Z,15.60
2023-02-07T06:13:51.590Z,14.30
2023-02-07T06:16:23.573Z,13.60
2023-02-07T06:18:55.448Z,14.90
2023-02-07T06:21:37.636Z,13.40
2023-02-07T06:24:17.284Z,12.90
2023-02-07T06:26:50.340Z,13.40
2023-02-07T06:29:22.415Z,12.50
2023-02-07T06:31:54.417Z,12.00
2023-02-07T06:34:26.421Z,13.00
2023-02-07T06:36:58.385Z,12.00
2023-02-07T06:39:30.451Z,13.30
2023-02-07T06:42:02.411Z,11.80
2023-02-07T06:44:34.338Z,11.40
2023-02-07T06:47:06.256Z,13.00
2023-02-07T06:49:38.170Z,13.10
2023-02-07T06:52:10.052Z,13.30
2023-02-07T06:54:42.130Z,12.40
2023-02-07T06:57:14.114Z,12.70
2023-02-07T06:59:46.153Z,12.70
2023-02-07T07:02:18.116Z,13.30
2023-02-07T07:04:50.491Z,13.40
2023-02-07T07:07:22.514Z,12.50
2023-02-07T07:09:54.422Z,11.60
2023-02-07T07:12:26.334Z,12.20
2023-02-07T07:14:58.335Z,11.80
2023-02-07T07:17:30.249Z,11.90
2023-02-07T07:20:02.219Z,10.90
2023-02-07T07:22:34.977Z,12.90
2023-02-07T07:25:07.342Z,12.70
2023-02-07T07:27:39.310Z,12.60
2023-02-07T07:30:11.790Z,10.80
2023-02-07T07:32:46.414Z,10.80
2023-02-07T07:35:19.584Z,11.90
2023-02-07T07:37:51.729Z,12.50
2023-02-07T07:40:23.651Z,11.50
2023-02-07T07:42:55.615Z,11.20
2023-02-07T07:45:49.569Z,10.60
2023-02-07T07:48:23.017Z,12.50
2023-02-07T07:50:55.260Z,11.60
2023-02-07T07:53:27.242Z,11.70
2023-02-07T07:55:59.179Z,10.80
2023-02-07T07:58:31.239Z,11.00
2023-02-07T08:01:03.507Z,10.60
2023-02-07T08:03:35.539Z,10.60
2023-02-07T08:06:07.916Z,11.50
2023-02-07T08:08:40.396Z,9.10
2023-02-07T08:11:12.359Z,10.00
2023-02-07T08:13:44.297Z,10.50
2023-02-07T08:16:16.820Z,9.90
2023-02-07T08:18:48.900Z,11.70
2023-02-07T08:21:21.310Z,9.80
2023-02-07T08:23:57.243Z,11.30
2023-02-07T08:26:29.204Z,11.70
2023-02-07T08:29:01.178Z,12.20
2023-02-07T08:31:33.758Z,10.70
2023-02-07T08:34:06.242Z,12.00
2023-02-07T08:36:39.641Z,11.40
2023-02-07T08:39:12.027Z,11.10
2023-02-07T08:41:43.897Z,12.20
2023-02-07T08:44:15.818Z,9.80
2023-02-07T08:46:47.712Z,12.00
2023-02-07T08:49:19.760Z,11.70
2023-02-07T08:51:52.931Z,8.60
2023-02-07T08:54:25.152Z,10.60
2023-02-07T08:56:57.191Z,10.20
2023-02-07T08:59:29.161Z,10.40
2023-02-07T09:02:01.207Z,12.50
2023-02-07T09:04:33.190Z,9.20
2023-02-07T09:07:05.243Z,9.00
2023-02-07T09:09:37.881Z,11.20
2023-02-07T09:12:11.106Z,10.30
2023-02-07T09:14:43.094Z,10.60
2023-02-07T09:17:15.002Z,9.70
2023-02-07T09:19:46.909Z,8.90
2023-02-07T09:22:18.883Z,9.60
2023-02-07T09:24:52.142Z,9.40
2023-02-07T09:27:24.020Z,8.90
2023-02-07T09:29:55.961Z,10.10
2023-02-07T09:32:27.847Z,9.20
2023-02-07T09:34:59.775Z,9.50
2023-02-07T09:37:40.002Z,9.40
2023-02-07T09:40:19.731Z,8.10
2023-02-07T09:43:09.205Z,9.30
2023-02-07T09:45:45.296Z,8.20
2023-02-07T09:48:41.660Z,9.80
2023-02-07T09:51:16.238Z,9.80
2023-02-07T09:53:58.223Z,8.30
2023-02-07T09:56:31.389Z,8.80
2023-02-07T09:59:03.299Z,9.30
2023-02-07T10:01:40.110Z,10.20
2023-02-07T10:04:24.909Z,9.10
2023-02-07T10:06:58.992Z,7.40
2023-02-07T10:09:36.804Z,7.80
2023-02-07T10:12:47.733Z,7.90
2023-02-07T10:15:37.991Z,8.40
2023-02-07T10:18:21.385Z,8.00
2023-02-07T10:21:05.807Z,8.30
2023-02-07T10:23:55.205Z,7.70
2023-02-07T10:26:33.346Z,7.00
2023-02-07T10:29:11.442Z,7.50
2023-02-07T10:31:47.874Z,7.90
2023-02-07T10:34:27.881Z,9.50
2023-02-07T10:37:00.766Z,8.30
2023-02-07T10:42:06.067Z,6.80
2023-02-07T10:44:38.037Z,8.80
2023-02-07T10:47:15.612Z,9.00
2023-02-07T10:49:49.773Z,8.10
2023-02-07T10:52:29.699Z,9.20
2023-02-07T10:55:04.854Z,8.40
2023-02-07T10:57:37.446Z,8.80
2023-02-07T11:00:27.661Z,7.70
2023-02-07T11:03:05.900Z,8.40
2023-02-07T11:05:40.932Z,8.40
2023-02-07T11:08:15.712Z,6.90
2023-02-07T11:10:47.784Z,7.90
2023-02-07T11:13:27.861Z,7.90
2023-02-07T11:16:07.354Z,7.80
2023-02-07T11:18:39.485Z,7.80
2023-02-07T11:21:33.284Z,9.30
2023-02-07T11:24:15.685Z,9.30
2023-02-07T11:27:13.424Z,7.00
2023-02-07T11:29:54.335Z,8.10
2023-02-07T11:32:27.964Z,8.10
2023-02-07T11:35:05.919Z,9.00
2023-02-07T11:37:42.160Z,8.60
2023-02-07T11:40:36.418Z,7.10
2023-02-07T11:43:15.811Z,7.80
2023-02-07T11:45:50.677Z,9.70
2023-02-07T11:48:45.470Z,7.90
2023-02-07T11:51:18.324Z,8.00
2023-02-07T11:53:54.476Z,8.80
2023-02-07T11:56:31.847Z,8.00
2023-02-07T11:59:08.697Z,8.30
2023-02-07T12:01:40.629Z,7.20
2023-02-07T12:04:33.672Z,8.10
2023-02-07T12:07:19.202Z,7.00
2023-02-07T12:10:02.054Z,7.60
2023-02-07T12:12:34.037Z,6.80
2023-02-07T12:15:18.457Z,7.90
2023-02-07T12:17:59.464Z,7.20
2023-02-07T12:20:45.652Z,6.90
2023-02-07T12:23:43.792Z,7.10
2023-02-07T12:26:53.492Z,7.30
2023-02-07T12:29:47.391Z,8.30
2023-02-07T12:32:50.760Z,7.50
2023-02-07T12:35:34.100Z,6.60
2023-02-07T12:38:24.079Z,7.20
2023-02-07T12:41:28.526Z,6.70
2023-02-07T12:44:30.935Z,7.80
2023-02-07T12:47:40.764Z,8.00
2023-02-07T12:50:24.824Z,6.80
2023-02-07T12:53:39.792Z,7.90
2023-02-07T12:56:20.803Z,6.70
2023-02-07T12:59:19.936Z,6.50
2023-02-07T13:01:57.956Z,6.40
2023-02-07T13:04:32.825Z,6.60
2023-02-07T13:07:30.075Z,6.70
2023-02-07T13:10:20.025Z,7.40
2023-02-07T13:13:04.235Z,7.60
2023-02-07T13:15:49.566Z,6.70
2023-02-07T13:18:30.952Z,6.30
2023-02-07T13:21:11.802Z,7.00
2023-02-07T13:23:46.280Z,6.80
2023-02-07T13:26:25.055Z,7.10
2023-02-07T13:29:02.683Z,7.20
2023-02-07T13:31:45.569Z,7.70
2023-02-07T13:34:21.592Z,9.30
2023-02-07T13:36:53.809Z,7.00
2023-02-07T13:39:28.812Z,7.10
2023-02-07T13:42:09.915Z,6.80
2023-02-07T13:45:01.308Z,6.80
2023-02-07T13:47:52.322Z,6.20
2023-02-07T13:50:51.656Z,7.00
2023-02-07T13:53:31.388Z,7.60
2023-02-07T13:56:09.336Z,6.60
2023-02-07T13:59:00.042Z,6.90
2023-02-07T14:01:36.871Z,7.50
2023-02-07T14:04:11.964Z,7.40
2023-02-07T14:07:12.061Z,8.10
2023-02-07T14:09:49.044Z,7.00
2023-02-07T14:12:28.026Z,7.60
2023-02-07T14:15:42.933Z,7.70
2023-02-07T14:18:40.522Z,7.90
2023-02-07T14:21:12.352Z,6.70
2023-02-07T14:24:09.426Z,7.20
2023-02-07T14:26:56.724Z,7.10
2023-02-07T14:29:28.824Z,6.50
2023-02-07T14:32:16.594Z,7.70
2023-02-07T14:35:02.571Z,6.90
2023-02-07T14:37:46.639Z,6.70
2023-02-07T14:40:22.168Z,6.70
2023-02-07T14:43:12.585Z,7.00
2023-02-07T14:45:50.644Z,7.10
2023-02-07T14:48:46.341Z,6.20
2023-02-07T14:51:19.896Z,7.10
2023-02-07T14:54:18.082Z,7.90
2023-02-07T14:56:53.239Z,6.60
2023-02-07T14:59:47.289Z,6.60
2023-02-07T15:02:37.644Z,7.00
2023-02-07T15:05:26.643Z,6.70
2023-02-07T15:08:19.033Z,6.70
2023-02-07T15:11:05.733Z,6.30
2023-02-07T15:13:43.446Z,5.70
2023-02-07T15:16:29.977Z,6.50
2023-02-07T15:19:10.783Z,8.00
2023-02-07T15:21:46.451Z,7.60
2023-02-07T15:24:39.800Z,5.90
2023-02-07T15:27:23.614Z,8.60
2023-02-07T15:29:58.413Z,6.40
2023-02-07T15:32:34.381Z,7.60
2023-02-07T15:35:17.060Z,6.70
2023-02-07T15:37:49.918Z,7.20
2023-02-07T15:42:58.969Z,5.90
2023-02-07T15:45:33.426Z,6.40
2023-02-07T15:48:14.460Z,7.00
2023-02-07T15:50:54.076Z,5.60
2023-02-07T15:53:28.461Z,6.40
2023-02-07T15:56:00.459Z,7.50
2023-02-07T15:58:35.132Z,7.20
2023-02-07T16:01:15.242Z,7.20
2023-02-07T16:03:47.812Z,7.30
2023-02-07T16:06:21.270Z,7.30
2023-02-07T16:08:58.741Z,7.30
2023-02-07T16:11:30.691Z,7.30
2023-02-07T16:14:39.399Z,7.20
2023-02-07T16:17:39.876Z,6.70
2023-02-07T16:20:15.087Z,7.30
2023-02-07T16:22:47.586Z,7.40
2023-02-07T16:25:26.905Z,6.70
2023-02-07T16:27:59.961Z,7.30
2023-02-07T16:30:38.072Z,7.00
2023-02-07T16:33:13.824Z,7.30
2023-02-07T16:35:46.054Z,6.50
2023-02-07T16:38:17.952Z,6.80
2023-02-07T16:40:49.913Z,7.90
2023-02-07T16:43:36.387Z,6.60
2023-02-07T16:46:08.587Z,6.20
2023-02-07T16:48:40.608Z,6.40
2023-02-07T16:51:12.536Z,6.10
2023-02-07T16:53:44.543Z,7.30
2023-02-07T16:56:26.785Z,6.80
2023-02-07T16:58:58.756Z,8.50
2023-02-07T17:01:31.232Z,7.20
2023-02-07T17:04:04.028Z,8.90
2023-02-07T17:06:35.952Z,7.70
2023-02-07T17:09:22.549Z,8.20
2023-02-07T17:11:54.817Z,7.10
2023-02-07T17:14:28.200Z,7.30
2023-02-07T17:17:00.611Z,6.90
2023-02-07T17:19:32.570Z,9.20
2023-02-07T17:22:05.154Z,6.80
2023-02-07T17:24:37.207Z,6.40
2023-02-07T17:27:10.682Z,7.30
2023-02-07T17:29:42.631Z,7.40
2023-02-07T17:32:14.500Z,8.20
2023-02-07T17:34:46.484Z,8.50
2023-02-07T17:37:18.376Z,6.80
2023-02-07T17:39:50.289Z,7.40
2023-02-07T17:42:22.177Z,7.70
2023-02-07T17:44:54.121Z,7.90
2023-02-07T17:47:26.056Z,8.00
2023-02-07T17:49:58.001Z,7.00
2023-02-07T17:52:29.909Z,7.20
2023-02-07T17:55:01.904Z,8.60
2023-02-07T17:57:33.843Z,6.20
2023-02-07T18:00:06.217Z,7.30
2023-02-07T18:02:47.319Z,7.30
2023-02-07T18:05:19.443Z,8.10
2023-02-07T18:07:51.989Z,8.20
2023-02-07T18:10:29.551Z,7.90
2023-02-07T18:13:01.934Z,7.10
2023-02-07T18:15:33.840Z,8.20
2023-02-07T18:18:06.073Z,6.40
2023-02-07T18:20:38.437Z,7.90
2023-02-07T18:23:12.307Z,6.60
2023-02-07T18:25:48.600Z,6.60
2023-02-07T18:28:20.584Z,8.30
2023-02-07T18:30:52.716Z,7.40
2023-02-07T18:33:24.670Z,6.90
2023-02-07T18:35:58.004Z,7.80
2023-02-07T18:38:29.953Z,7.40
2023-02-07T18:41:06.903Z,7.90
2023-02-07T18:43:40.626Z,6.40
2023-02-07T18:46:16.796Z,7.20
2023-02-07T18:48:53.585Z,7.10
2023-02-07T18:51:26.086Z,7.40
2023-02-07T18:53:58.051Z,7.70
2023-02-07T18:56:30.055Z,8.40
2023-02-07T18:59:02.203Z,7.50
2023-02-07T19:01:35.479Z,7.50
2023-02-07T19:04:07.357Z,7.70
2023-02-07T19:06:39.321Z,6.60
2023-02-07T19:09:11.880Z,7.00
2023-02-07T19:11:44.089Z,7.60
2023-02-07T19:14:17.886Z,6.20
2023-02-07T19:16:53.028Z,8.00
2023-02-07T19:19:28.155Z,7.60
2023-02-07T19:22:00.571Z,6.70
2023-02-07T19:24:32.639Z,7.10
2023-02-07T19:27:05.538Z,7.40
2023-02-07T19:32:09.580Z,7.50
2023-02-07T19:34:42.507Z,7.10
2023-02-07T19:39:49.267Z,6.70
2023-02-07T19:42:21.228Z,7.40
2023-02-07T19:44:53.284Z,8.00
2023-02-07T19:47:25.273Z,7.60
2023-02-07T19:49:57.201Z,6.80
2023-02-07T19:52:29.266Z,8.00
2023-02-07T19:55:01.411Z,8.00
2023-02-07T19:57:35.064Z,7.60
2023-02-07T20:00:07.900Z,7.70
2023-02-07T20:02:39.806Z,9.10
2023-02-07T20:05:11.832Z,10.30
2023-02-07T20:07:43.740Z,8.40
2023-02-07T20:10:15.761Z,9.20
2023-02-07T20:12:48.555Z,9.90
2023-02-07T20:15:20.538Z,6.40
2023-02-07T20:17:54.229Z,7.30
2023-02-07T20:20:26.211Z,8.90
2023-02-07T20:22:58.250Z,7.90
2023-02-07T20:25:33.838Z,8.90
2023-02-07T20:28:07.287Z,8.20
2023-02-07T20:30:45.142Z,7.50
2023-02-07T20:33:17.117Z,8.20
2023-02-07T20:35:49.020Z,8.70
2023-02-07T20:38:21.015Z,8.30
2023-02-07T20:40:53.000Z,7.10
2023-02-07T20:43:24.978Z,8.50
2023-02-07T20:46:08.347Z,7.10
2023-02-07T20:48:41.448Z,7.90
2023-02-07T20:51:13.307Z,8.50
2023-02-07T20:53:45.304Z,8.80
2023-02-07T20:56:22.461Z,9.00
2023-02-07T20:58:54.979Z,8.30
2023-02-07T21:01:29.153Z,9.20
2023-02-07T21:04:04.233Z,8.30
2023-02-07T21:06:36.389Z,8.10
2023-02-07T21:09:08.812Z,9.90
2023-02-07T21:11:46.503Z,9.40
2023-02-07T21:14:25.474Z,9.10
2023-02-07T21:17:01.493Z,9.20
2023-02-07T21:19:34.752Z,9.60
2023-02-07T21:22:07.826Z,9.00
2023-02-07T21:24:39.950Z,10.00
2023-02-07T21:27:12.185Z,9.60
2023-02-07T21:29:44.192Z,8.70
2023-02-07T21:32:16.101Z,9.40
2023-02-07T21:34:48.953Z,8.40
2023-02-07T21:37:21.366Z,7.90
2023-02-07T21:39:53.452Z,8.00
2023-02-07T21:42:25.363Z,9.50
2023-02-07T21:44:57.439Z,8.80
2023-02-07T21:47:29.373Z,7.70
2023-02-07T21:50:01.642Z,8.20
2023-02-07T21:52:34.229Z,9.20
2023-02-07T21:55:06.733Z,8.90
2023-02-07T21:57:38.712Z,11.10
2023-02-07T22:00:12.340Z,8.30
2023-02-07T22:02:44.345Z,7.40
2023-02-07T22:05:16.322Z,8.80
2023-02-07T22:07:48.257Z,7.50
2023-02-07T22:10:20.200Z,7.90
2023-02-07T22:12:52.113Z,9.00
2023-02-07T22:15:24.066Z,8.10
2023-02-07T22:17:55.954Z,8.20
2023-02-07T22:20:27.952Z,11.50
2023-02-07T22:22:59.924Z,10.00
2023-02-07T22:25:31.842Z,9.40
2023-02-07T22:28:03.872Z,11.60
2023-02-07T22:30:37.438Z,12.50
2023-02-07T22:33:10.665Z,11.00
2023-02-07T22:35:43.782Z,12.00
2023-02-07T22:38:15.709Z,12.70
2023-02-07T22:40:47.601Z,14.40
2023-02-07T22:43:19.537Z,12.90
2023-02-07T22:45:51.460Z,14.90
2023-02-07T22:48:23.485Z,14.50
2023-02-07T22:50:55.430Z,12.40
2023-02-07T22:53:27.601Z,16.00
2023-02-07T22:56:02.062Z,16.60
2023-02-07T22:58:33.954Z,14.20
2023-02-07T23:01:06.213Z,15.50
2023-02-07T23:03:38.113Z,13.60
2023-02-07T23:06:10.124Z,14.70
2023-02-07T23:08:42.137Z,15.50
2023-02-07T23:11:16.221Z,14.10
2023-02-07T23:13:48.837Z,15.60
2023-02-07T23:16:23.955Z,15.30
2023-02-07T23:18:57.565Z,16.20
2023-02-07T23:21:29.588Z,13.30
2023-02-07T23:24:01.641Z,14.20
2023-02-07T23:26:33.880Z,18.30
2023-02-07T23:29:06.266Z,15.30
2023-02-07T23:31:38.350Z,14.70
2023-02-07T23:34:10.515Z,15.60
2023-02-07T23:36:42.469Z,15.40
2023-02-07T23:39:14.637Z,14.60
2023-02-07T23:41:46.574Z,15.50
2023-02-07T23:44:18.435Z,15.50
2023-02-07T23:46:50.439Z,14.40
2023-02-07T23:49:22.305Z,13.70
2023-02-07T23:51:54.223Z,15.10
2023-02-07T23:54:26.228Z,14.00
2023-02-07T23:56:58.192Z,15.50
2023-02-07T23:59:30.191Z,14.20
